Time;durP1;ratioP1;P1;durP2;ratioP2;P2;SDS_P1;SDS_P2;PMS_P1;PMS_P2;Temp;Humidity;BMP_temperature;BMP_pressure;BME280_temperature;BME280_humidity;BME280_pressure;Samples;Min_cycle;Max_cycle;Signal;HPM_P1;HPM_P2
2022/05/07 00:01:45;;;;;;;19.20;12.82;;;16.00;47.70;;;;;;5037124;28;20049;-48
2022/05/07 00:04:12;;;;;;;19.75;13.82;;;15.90;47.70;;;;;;5039520;28;20416;-45
2022/05/07 00:06:39;;;;;;;19.73;13.73;;;15.90;47.80;;;;;;5038891;28;20053;-43
2022/05/07 00:09:07;;;;;;;20.60;13.02;;;15.90;47.90;;;;;;5040434;28;20488;-45
2022/05/07 00:11:34;;;;;;;19.65;13.90;;;15.80;48.00;;;;;;5036880;28;20854;-44
2022/05/07 00:14:03;;;;;;;23.38;15.48;;;15.80;48.00;;;;;;5035973;28;20061;-47
2022/05/07 00:19:16;;;;;;;20.67;14.73;;;15.70;48.20;;;;;;5044323;28;20063;-44
2022/05/07 00:21:43;;;;;;;22.25;16.48;;;15.70;48.20;;;;;;5037604;28;20041;-45
2022/05/07 00:24:10;;;;;;;28.40;18.38;;;15.60;48.20;;;;;;5040484;28;20052;-44
2022/05/07 00:26:38;;;;;;;25.75;18.45;;;15.60;48.40;;;;;;5039063;28;20386;-49
2022/05/07 00:29:07;;;;;;;27.00;18.95;;;15.60;48.40;;;;;;5037496;28;20056;-49
2022/05/07 00:31:34;;;;;;;29.65;20.00;;;15.60;48.50;;;;;;5036312;28;20432;-46
2022/05/07 00:34:02;;;;;;;26.83;19.00;;;15.60;48.60;;;;;;5037596;28;20052;-48
2022/05/07 00:36:29;;;;;;;24.70;17.75;;;15.50;48.60;;;;;;5036817;28;20542;-43
2022/05/07 00:38:57;;;;;;;25.50;17.58;;;15.50;48.60;;;;;;5040800;28;20500;-47
2022/05/07 00:41:24;;;;;;;26.00;18.00;;;15.50;48.70;;;;;;5034405;28;20055;-49
2022/05/07 00:43:52;;;;;;;30.60;19.88;;;15.50;48.70;;;;;;5038529;28;20600;-45
2022/05/07 00:46:23;;;;;;;23.48;17.50;;;15.40;48.70;;;;;;5037517;28;20068;-48
2022/05/07 00:48:51;;;;;;;24.65;17.08;;;15.40;48.80;;;;;;5036264;28;20056;-43
2022/05/07 00:51:35;;;;;;;23.90;16.45;;;15.40;48.90;;;;;;5034420;28;20071;-47
2022/05/07 00:54:04;;;;;;;25.15;17.52;;;15.40;49.00;;;;;;5037479;28;20420;-51
2022/05/07 00:56:32;;;;;;;23.92;17.13;;;15.40;49.10;;;;;;5037185;28;20079;-49
2022/05/07 00:59:00;;;;;;;26.67;17.58;;;15.40;49.10;;;;;;5036628;28;20049;-44
2022/05/07 01:01:29;;;;;;;21.80;15.82;;;15.30;49.00;;;;;;5035661;28;20485;-45
2022/05/07 01:03:58;;;;;;;23.88;15.82;;;15.40;49.10;;;;;;5035100;28;20044;-47
2022/05/07 01:06:25;;;;;;;25.00;18.02;;;15.30;49.00;;;;;;5038513;28;20079;-44
2022/05/07 01:08:53;;;;;;;25.35;17.08;;;15.30;49.10;;;;;;5035573;28;20052;-45
2022/05/07 01:11:20;;;;;;;25.38;17.08;;;15.30;49.20;;;;;;5035512;28;20060;-46
2022/05/07 01:13:48;;;;;;;23.10;15.27;;;15.20;49.20;;;;;;5037379;28;20061;-45
2022/05/07 01:16:16;;;;;;;23.27;15.35;;;15.20;49.30;;;;;;5034242;28;20053;-44
2022/05/07 01:18:45;;;;;;;25.45;16.52;;;15.20;49.40;;;;;;5035567;28;20052;-47
2022/05/07 01:21:15;;;;;;;21.55;15.05;;;15.20;49.50;;;;;;5037199;28;20434;-48
2022/05/07 01:23:44;;;;;;;22.30;15.65;;;15.10;49.50;;;;;;5041427;28;20416;-47
2022/05/07 01:26:12;;;;;;;23.27;15.75;;;15.10;49.60;;;;;;5040537;28;20053;-46
2022/05/07 01:28:40;;;;;;;21.60;15.23;;;15.10;49.70;;;;;;5041091;28;20432;-44
2022/05/07 01:31:07;;;;;;;24.98;17.40;;;15.00;49.70;;;;;;5041559;28;20052;-49
2022/05/07 01:33:36;;;;;;;28.50;18.75;;;15.00;49.80;;;;;;5039660;28;20080;-47
2022/05/07 01:36:07;;;;;;;24.73;17.30;;;15.00;49.90;;;;;;5043880;28;20053;-45
2022/05/07 01:38:35;;;;;;;29.38;20.30;;;15.00;50.30;;;;;;5035427;28;20053;-46
2022/05/07 01:41:03;;;;;;;28.02;18.67;;;15.00;49.90;;;;;;5038858;28;20370;-49
2022/05/07 01:43:32;;;;;;;33.08;21.00;;;14.90;49.90;;;;;;5042676;28;20068;-48
2022/05/07 01:46:00;;;;;;;31.73;19.73;;;14.90;50.00;;;;;;5043315;28;20049;-43
2022/05/07 01:48:26;;;;;;;26.98;19.35;;;14.90;50.10;;;;;;5040176;28;20057;-45
2022/05/07 01:50:54;;;;;;;29.05;19.77;;;14.80;50.10;;;;;;5041915;28;20045;-48
2022/05/07 01:53:22;;;;;;;31.52;21.38;;;14.80;50.20;;;;;;5041463;28;20510;-45
2022/05/07 01:55:51;;;;;;;27.38;19.77;;;14.80;50.30;;;;;;5043848;28;20057;-43
2022/05/07 01:58:19;;;;;;;25.13;17.92;;;14.80;50.30;;;;;;5041357;28;20057;-46
2022/05/07 02:00:46;;;;;;;28.48;20.25;;;14.80;50.30;;;;;;5041518;28;20045;-43
2022/05/07 02:03:13;;;;;;;27.55;20.00;;;14.70;50.40;;;;;;5037688;28;20060;-46
2022/05/07 02:05:41;;;;;;;25.33;18.50;;;14.70;50.40;;;;;;5043360;28;20064;-48
2022/05/07 02:08:10;;;;;;;28.17;19.02;;;14.70;50.40;;;;;;5042654;28;20057;-45
2022/05/07 02:10:37;;;;;;;23.60;17.77;;;14.70;50.50;;;;;;5042766;28;20045;-47
2022/05/07 02:13:06;;;;;;;28.85;19.48;;;14.70;50.60;;;;;;5038580;28;20068;-46
2022/05/07 02:15:35;;;;;;;26.08;18.60;;;14.70;50.70;;;;;;5041579;28;20057;-50
2022/05/07 02:18:02;;;;;;;28.15;19.75;;;14.60;50.60;;;;;;5041286;28;20559;-44
2022/05/07 02:20:30;;;;;;;27.58;18.33;;;14.60;50.80;;;;;;5043128;28;20053;-44
2022/05/07 02:22:57;;;;;;;23.77;17.15;;;14.60;50.80;;;;;;5038945;28;20056;-48
2022/05/07 02:25:25;;;;;;;27.98;20.13;;;14.60;50.80;;;;;;5042942;28;20488;-45
2022/05/07 02:27:53;;;;;;;27.98;19.05;;;14.60;50.90;;;;;;5042133;28;20053;-46
2022/05/07 02:30:22;;;;;;;33.40;21.33;;;14.60;51.00;;;;;;5042054;28;20072;-46
2022/05/07 02:32:50;;;;;;;27.80;20.38;;;14.50;51.00;;;;;;5038057;28;20440;-48
2022/05/07 02:35:17;;;;;;;27.85;20.80;;;14.50;51.00;;;;;;5042495;28;20509;-43
2022/05/07 02:37:45;;;;;;;30.27;19.75;;;14.50;51.00;;;;;;5041413;28;20508;-49
2022/05/07 02:40:13;;;;;;;35.35;24.88;;;14.50;51.00;;;;;;5037959;28;20060;-46
2022/05/07 02:42:43;;;;;;;30.98;21.27;;;14.50;51.20;;;;;;5038447;28;20056;-44
2022/05/07 02:45:12;;;;;;;28.27;20.80;;;14.40;51.10;;;;;;5037590;28;20519;-45
2022/05/07 02:47:43;;;;;;;32.17;21.50;;;14.40;51.20;;;;;;5040688;28;20049;-46
2022/05/07 02:50:12;;;;;;;28.63;21.85;;;14.40;51.30;;;;;;5038987;28;20500;-47
2022/05/07 02:52:39;;;;;;;26.67;19.88;;;14.40;51.30;;;;;;5039057;28;20045;-47
2022/05/07 02:55:09;;;;;;;24.40;19.20;;;14.30;51.30;;;;;;5042408;28;20057;-47
2022/05/07 02:57:37;;;;;;;30.23;20.70;;;14.30;51.40;;;;;;5040116;28;20124;-47
2022/05/07 03:00:05;;;;;;;32.60;22.30;;;14.30;51.40;;;;;;5038530;28;20056;-44
2022/05/07 03:02:32;;;;;;;28.30;21.58;;;14.30;51.50;;;;;;5037716;28;20064;-47
2022/05/07 03:05:01;;;;;;;28.02;20.55;;;14.30;51.50;;;;;;5041350;28;20056;-44
2022/05/07 03:07:29;;;;;;;32.42;23.38;;;14.20;51.50;;;;;;5040439;28;20059;-46
2022/05/07 03:09:56;;;;;;;37.72;24.60;;;14.20;51.60;;;;;;5040653;28;20063;-44
2022/05/07 03:12:23;;;;;;;30.20;22.40;;;14.20;51.60;;;;;;5040005;28;20053;-48
2022/05/07 03:14:51;;;;;;;31.60;22.38;;;14.20;51.60;;;;;;5040580;28;20063;-44
2022/05/07 03:17:18;;;;;;;30.10;21.58;;;14.10;51.70;;;;;;5041878;28;20416;-44
2022/05/07 03:19:46;;;;;;;31.27;21.27;;;14.10;51.70;;;;;;5039995;28;20052;-44
2022/05/07 03:22:14;;;;;;;33.50;22.88;;;14.10;51.80;;;;;;5035529;28;20052;-44
2022/05/07 03:24:42;;;;;;;37.50;25.40;;;14.10;52.00;;;;;;5040306;28;20083;-46
2022/05/07 03:27:09;;;;;;;33.30;22.75;;;14.10;52.00;;;;;;5038363;28;20523;-46
2022/05/07 03:29:37;;;;;;;30.63;22.23;;;14.00;52.00;;;;;;5037766;28;20060;-45
2022/05/07 03:32:05;;;;;;;35.92;22.98;;;14.00;52.00;;;;;;5037447;28;20507;-45
2022/05/07 03:34:33;;;;;;;32.72;23.52;;;14.00;52.10;;;;;;5039057;28;20076;-49
2022/05/07 03:37:00;;;;;;;32.60;23.90;;;14.00;52.20;;;;;;5038670;28;20053;-45
2022/05/07 03:39:30;;;;;;;35.05;24.02;;;13.90;52.20;;;;;;5038587;28;20492;-46
2022/05/07 03:41:57;;;;;;;34.35;23.75;;;13.90;52.30;;;;;;5033679;28;20045;-46
2022/05/07 03:44:25;;;;;;;33.95;22.67;;;13.90;52.30;;;;;;5040519;28;20056;-44
2022/05/07 03:46:52;;;;;;;36.83;24.23;;;13.90;52.40;;;;;;5041171;28;20076;-45
2022/05/07 03:49:20;;;;;;;32.05;22.52;;;13.90;52.50;;;;;;5033416;28;20053;-46
2022/05/07 03:54:33;;;;;;;30.38;20.75;;;13.80;52.50;;;;;;5044952;28;20059;-45
2022/05/07 03:57:01;;;;;;;30.25;21.30;;;13.80;52.60;;;;;;5041486;28;20057;-46
2022/05/07 03:59:28;;;;;;;28.23;20.25;;;13.80;52.70;;;;;;5039751;28;20059;-47
2022/05/07 04:01:56;;;;;;;28.10;19.80;;;13.80;52.70;;;;;;5040021;28;20060;-47
2022/05/07 04:04:23;;;;;;;37.25;23.75;;;13.80;52.80;;;;;;5040403;28;20405;-44
2022/05/07 04:06:50;;;;;;;34.60;23.00;;;13.80;52.90;;;;;;5036890;28;20060;-44
2022/05/07 04:09:18;;;;;;;34.83;23.23;;;13.80;52.90;;;;;;5038119;28;20049;-45
2022/05/07 04:11:47;;;;;;;35.92;23.75;;;13.80;52.90;;;;;;5038796;28;20049;-48
2022/05/07 04:14:14;;;;;;;29.63;21.67;;;13.70;53.00;;;;;;5035951;28;20421;-44
2022/05/07 04:16:41;;;;;;;32.63;22.60;;;13.80;53.00;;;;;;5032716;28;20053;-47
2022/05/07 04:19:11;;;;;;;31.15;20.40;;;13.70;53.00;;;;;;5032808;28;20048;-45
2022/05/07 04:21:38;;;;;;;30.67;22.10;;;13.70;53.10;;;;;;5040058;28;20052;-43
2022/05/07 04:24:06;;;;;;;33.92;24.17;;;13.80;53.20;;;;;;5037585;28;20424;-48
2022/05/07 04:26:34;;;;;;;33.35;23.02;;;13.70;53.20;;;;;;5030362;28;20489;-45
2022/05/07 04:29:02;;;;;;;33.22;22.77;;;13.70;53.20;;;;;;5029212;28;20049;-45
2022/05/07 04:31:30;;;;;;;38.50;24.73;;;13.70;53.30;;;;;;5011597;28;20049;-48
2022/05/07 04:33:57;;;;;;;37.50;26.27;;;13.70;53.30;;;;;;5012301;28;20042;-44
2022/05/07 04:36:25;;;;;;;36.63;25.70;;;13.70;53.30;;;;;;5020060;28;20060;-46
2022/05/07 04:38:52;;;;;;;41.15;25.67;;;13.70;53.40;;;;;;5013291;28;20107;-44
2022/05/07 04:41:20;;;;;;;34.90;24.65;;;13.70;53.40;;;;;;5019033;28;20049;-46
2022/05/07 04:43:47;;;;;;;37.50;26.17;;;13.70;53.50;;;;;;5017900;28;20485;-46
2022/05/07 04:46:17;;;;;;;39.33;28.10;;;13.70;53.50;;;;;;5018209;28;20050;-47
2022/05/07 04:48:46;;;;;;;30.10;22.88;;;13.70;53.60;;;;;;5016948;28;20073;-48
2022/05/07 04:51:13;;;;;;;40.53;26.40;;;13.70;53.50;;;;;;5020333;28;20053;-49
2022/05/07 04:53:40;;;;;;;32.60;23.13;;;13.80;53.70;;;;;;5014427;28;20053;-45
2022/05/07 04:56:08;;;;;;;31.25;21.83;;;13.80;53.70;;;;;;5019336;28;20053;-46
2022/05/07 04:58:35;;;;;;;30.35;21.50;;;13.80;53.70;;;;;;5019141;28;20425;-47
2022/05/07 05:01:03;;;;;;;33.95;22.92;;;13.80;53.70;;;;;;5019732;28;20053;-47
2022/05/07 05:03:32;;;;;;;40.60;25.20;;;13.90;53.70;;;;;;5018152;28;20057;-46
2022/05/07 05:05:59;;;;;;;35.25;24.42;;;13.80;53.80;;;;;;5019939;28;20049;-45
2022/05/07 05:08:28;;;;;;;39.00;25.88;;;13.90;53.90;;;;;;5023817;28;20053;-46
2022/05/07 05:10:55;;;;;;;36.10;25.50;;;13.90;54.00;;;;;;5018193;28;20053;-47
2022/05/07 05:13:22;;;;;;;28.08;22.02;;;14.00;54.10;;;;;;5020449;28;20049;-44
2022/05/07 05:15:53;;;;;;;29.45;21.00;;;14.00;54.00;;;;;;5020094;28;20429;-48
2022/05/07 05:18:20;;;;;;;34.05;23.40;;;14.00;54.00;;;;;;5017057;28;20060;-46
2022/05/07 05:20:49;;;;;;;31.42;22.92;;;14.00;54.00;;;;;;5021664;28;20053;-44
2022/05/07 05:23:16;;;;;;;33.85;23.23;;;14.10;54.10;;;;;;5015831;28;20045;-46
2022/05/07 05:25:45;;;;;;;29.88;22.33;;;14.10;54.00;;;;;;5024685;28;20060;-47
2022/05/07 05:28:13;;;;;;;28.38;21.65;;;14.20;54.00;;;;;;5019841;28;20417;-48
2022/05/07 05:30:40;;;;;;;34.67;23.25;;;14.20;54.10;;;;;;5019106;28;20417;-47
2022/05/07 05:33:10;;;;;;;33.50;23.50;;;14.20;54.10;;;;;;5011025;28;20049;-49
2022/05/07 05:35:38;;;;;;;29.45;22.48;;;14.30;54.10;;;;;;5018199;28;20053;-45
2022/05/07 05:38:07;;;;;;;30.88;21.52;;;14.30;54.10;;;;;;5019340;28;20060;-43
2022/05/07 05:40:35;;;;;;;29.63;21.27;;;14.40;54.20;;;;;;5018993;28;20057;-47
2022/05/07 05:43:04;;;;;;;32.45;22.25;;;14.40;54.20;;;;;;5014354;28;20474;-44
2022/05/07 05:45:32;;;;;;;27.17;20.30;;;14.50;54.40;;;;;;5019547;28;20049;-47
2022/05/07 05:48:01;;;;;;;27.17;21.55;;;14.60;54.50;;;;;;5019165;28;20053;-46
2022/05/07 05:50:29;;;;;;;25.20;20.33;;;14.60;54.60;;;;;;5016475;28;20068;-46
2022/05/07 05:52:57;;;;;;;34.80;24.40;;;14.70;54.60;;;;;;5018247;28;20053;-46
2022/05/07 05:55:25;;;;;;;28.45;21.58;;;14.70;54.80;;;;;;5020388;28;20482;-45
2022/05/07 05:57:53;;;;;;;34.33;23.58;;;14.80;54.90;;;;;;5020812;28;20417;-49
2022/05/07 06:00:21;;;;;;;35.50;23.02;;;14.90;55.00;;;;;;5022882;28;20057;-45
2022/05/07 06:02:48;;;;;;;30.17;23.02;;;14.90;55.00;;;;;;5015881;28;20479;-45
2022/05/07 06:05:17;;;;;;;29.33;22.23;;;15.00;55.10;;;;;;5021096;28;20053;-47
2022/05/07 06:07:44;;;;;;;29.10;22.90;;;15.10;55.20;;;;;;5014090;28;20057;-48
2022/05/07 06:10:12;;;;;;;25.15;20.15;;;15.20;55.10;;;;;;5017632;28;20046;-47
2022/05/07 06:12:41;;;;;;;30.83;20.40;;;15.20;55.10;;;;;;5019441;28;20060;-48
2022/05/07 06:15:10;;;;;;;28.60;20.15;;;15.30;55.10;;;;;;5021365;28;20057;-45
2022/05/07 06:17:38;;;;;;;29.20;21.80;;;15.30;55.00;;;;;;5018565;28;20057;-45
2022/05/07 06:20:07;;;;;;;28.05;20.70;;;15.40;55.00;;;;;;5021492;28;20064;-46
2022/05/07 06:22:34;;;;;;;28.25;20.95;;;15.50;54.90;;;;;;5019661;28;20056;-45
2022/05/07 06:27:48;;;;;;;30.08;21.63;;;15.60;55.00;;;;;;5024186;28;20091;-48
2022/05/07 06:30:16;;;;;;;28.58;21.55;;;15.60;54.80;;;;;;5021420;28;20058;-44
2022/05/07 06:32:43;;;;;;;31.73;21.05;;;15.70;54.80;;;;;;5016037;28;20045;-45
2022/05/07 06:35:11;;;;;;;30.08;21.63;;;15.70;54.90;;;;;;5015345;28;20054;-45
2022/05/07 06:37:40;;;;;;;25.80;20.08;;;15.70;54.90;;;;;;5020102;28;20079;-45
2022/05/07 06:40:09;;;;;;;26.50;20.08;;;15.80;55.00;;;;;;5019439;28;20062;-45
2022/05/07 06:42:37;;;;;;;24.77;20.13;;;15.80;55.00;;;;;;5022049;28;20061;-48
2022/05/07 06:45:07;;;;;;;32.67;22.83;;;15.90;55.10;;;;;;5019941;28;20057;-48
2022/05/07 06:47:34;;;;;;;29.20;22.38;;;15.90;55.60;;;;;;5020845;28;20057;-43
2022/05/07 06:50:02;;;;;;;35.00;25.42;;;16.00;55.60;;;;;;5019570;28;20057;-45
2022/05/07 06:52:29;;;;;;;30.10;22.00;;;16.00;55.90;;;;;;5016158;28;20079;-48
2022/05/07 06:54:57;;;;;;;31.90;23.40;;;16.10;55.80;;;;;;5020102;28;20398;-45
2022/05/07 06:57:25;;;;;;;25.08;19.98;;;16.20;56.00;;;;;;5018752;28;20053;-47
2022/05/07 06:59:52;;;;;;;31.55;23.27;;;16.20;55.80;;;;;;5020228;28;20053;-46
2022/05/07 07:02:22;;;;;;;26.38;20.52;;;16.30;56.00;;;;;;5021745;28;20061;-44
2022/05/07 07:04:49;;;;;;;25.75;20.88;;;16.40;56.00;;;;;;5020376;28;20069;-47
2022/05/07 07:07:24;;;;;;;26.85;19.98;;;16.40;55.90;;;;;;5018866;28;20056;-47
2022/05/07 07:09:52;;;;;;;29.83;21.15;;;16.50;55.90;;;;;;5021174;28;20054;-45
2022/05/07 07:12:20;;;;;;;27.27;21.13;;;16.60;55.80;;;;;;5021678;28;20064;-45
2022/05/07 07:14:50;;;;;;;30.35;20.20;;;16.60;55.70;;;;;;5016905;28;20483;-46
2022/05/07 07:17:18;;;;;;;27.17;19.45;;;16.70;55.50;;;;;;5021485;28;20060;-47
2022/05/07 07:19:47;;;;;;;30.15;20.02;;;16.80;55.20;;;;;;5018220;28;20053;-47
2022/05/07 07:22:15;;;;;;;29.70;20.40;;;16.80;54.60;;;;;;5020537;28;20053;-47
2022/05/07 07:24:42;;;;;;;27.05;18.08;;;16.90;54.50;;;;;;5019174;28;20045;-44
2022/05/07 07:27:10;;;;;;;26.08;17.95;;;17.00;54.50;;;;;;5019761;28;20049;-45
2022/05/07 07:29:37;;;;;;;31.77;21.05;;;17.10;54.50;;;;;;5019182;28;20060;-50
2022/05/07 07:32:06;;;;;;;30.27;20.65;;;17.10;54.30;;;;;;5018313;28;20068;-45
2022/05/07 07:34:33;;;;;;;34.55;20.60;;;17.20;54.10;;;;;;5015525;28;20060;-47
2022/05/07 07:37:02;;;;;;;38.65;23.70;;;17.30;53.90;;;;;;5017727;28;20045;-43
2022/05/07 07:39:29;;;;;;;43.88;24.92;;;17.40;53.30;;;;;;5018704;28;20064;-45
2022/05/07 07:41:57;;;;;;;41.75;24.08;;;17.50;53.20;;;;;;5020650;28;20062;-46
2022/05/07 07:44:26;;;;;;;39.13;25.48;;;17.50;52.00;;;;;;5016580;28;20054;-43
2022/05/07 07:49:38;;;;;;;39.15;24.92;;;17.70;52.20;;;;;;5012847;28;20692;-44
2022/05/07 07:52:07;;;;;;;35.63;24.13;;;17.80;51.90;;;;;;5019297;28;20053;-43
2022/05/07 07:54:35;;;;;;;39.88;24.38;;;17.80;51.80;;;;;;5019615;28;20045;-44
2022/05/07 07:57:03;;;;;;;37.70;23.92;;;17.90;52.00;;;;;;5016198;28;20073;-46
2022/05/07 07:59:30;;;;;;;38.95;25.85;;;17.90;51.20;;;;;;5018759;28;20054;-48
2022/05/07 08:01:58;;;;;;;41.97;25.15;;;18.00;51.00;;;;;;5017411;28;20057;-46
2022/05/07 08:04:26;;;;;;;41.55;25.58;;;18.10;51.10;;;;;;5018463;28;20056;-44
2022/05/07 08:12:21;;;;;;;39.38;26.30;;;18.30;51.60;;;;;;5023874;28;20064;-45
2022/05/07 08:14:48;;;;;;;37.47;24.35;;;18.40;50.90;;;;;;5018081;28;20065;-44
2022/05/07 08:17:16;;;;;;;44.85;25.63;;;18.50;51.50;;;;;;5017523;28;20417;-44
2022/05/07 08:19:44;;;;;;;42.05;26.50;;;18.50;50.90;;;;;;5014752;28;20501;-44
2022/05/07 08:22:11;;;;;;;38.17;23.23;;;18.60;50.60;;;;;;5017129;28;20075;-47
2022/05/07 08:24:40;;;;;;;47.30;24.00;;;18.70;50.60;;;;;;5021126;28;20401;-47
2022/05/07 08:27:08;;;;;;;41.47;25.08;;;18.70;50.30;;;;;;5017809;28;20061;-45
2022/05/07 08:29:35;;;;;;;43.42;25.42;;;18.80;50.40;;;;;;5021651;28;20520;-45
2022/05/07 08:32:02;;;;;;;39.05;24.05;;;18.90;49.40;;;;;;5018839;28;20064;-47
2022/05/07 08:34:31;;;;;;;50.25;24.58;;;18.90;50.60;;;;;;5020254;28;20053;-46
2022/05/07 08:36:58;;;;;;;43.83;24.92;;;19.00;49.50;;;;;;5021686;28;20057;-45
2022/05/07 08:39:27;;;;;;;44.60;23.83;;;19.10;48.90;;;;;;5023242;28;20723;-47
2022/05/07 08:41:57;;;;;;;48.17;23.67;;;19.20;49.10;;;;;;5021837;28;20061;-45
2022/05/07 08:44:25;;;;;;;46.92;24.60;;;19.30;48.50;;;;;;5021592;28;20053;-45
2022/05/07 08:46:53;;;;;;;41.65;23.08;;;19.30;48.40;;;;;;5022032;28;20050;-46
2022/05/07 08:49:21;;;;;;;39.03;21.55;;;19.40;49.00;;;;;;5023132;28;20057;-46
2022/05/07 08:51:50;;;;;;;56.08;23.52;;;19.50;48.90;;;;;;5021287;28;20555;-45
2022/05/07 08:54:17;;;;;;;39.38;20.90;;;19.50;48.30;;;;;;5025104;28;20409;-45
2022/05/07 08:56:45;;;;;;;44.17;21.45;;;19.60;48.00;;;;;;5023386;28;20614;-45
2022/05/07 08:59:14;;;;;;;41.45;21.17;;;19.70;47.60;;;;;;5023354;28;20094;-43
2022/05/07 09:01:42;;;;;;;41.70;21.60;;;19.80;47.40;;;;;;5020118;28;20513;-46
2022/05/07 09:04:10;;;;;;;41.60;20.58;;;19.90;47.00;;;;;;5022262;28;20472;-44
2022/05/07 09:06:38;;;;;;;42.28;20.48;;;20.00;47.00;;;;;;5021110;28;20053;-45
2022/05/07 09:09:07;;;;;;;44.25;22.40;;;20.10;46.50;;;;;;5022959;28;20060;-48
2022/05/07 09:11:42;;;;;;;44.08;20.27;;;20.20;46.20;;;;;;5020283;28;20547;-46
2022/05/07 09:14:11;;;;;;;40.58;21.08;;;20.30;46.20;;;;;;5023721;28;20060;-44
2022/05/07 09:16:41;;;;;;;47.80;22.08;;;20.30;45.30;;;;;;5020748;28;20497;-45
2022/05/07 09:19:20;;;;;;;40.15;20.88;;;20.40;44.50;;;;;;5021760;28;20066;-45
2022/05/07 09:21:48;;;;;;;47.00;23.48;;;20.40;44.50;;;;;;5020094;28;20052;-46
2022/05/07 09:24:15;;;;;;;38.05;19.90;;;20.50;44.40;;;;;;5024157;28;20168;-44
2022/05/07 09:26:44;;;;;;;39.47;20.25;;;20.50;44.20;;;;;;5021181;28;20060;-44
2022/05/07 09:29:13;;;;;;;38.03;20.48;;;20.60;44.70;;;;;;5020290;28;20054;-43
2022/05/07 09:31:44;;;;;;;41.53;21.85;;;20.60;44.40;;;;;;5015896;28;20404;-44
2022/05/07 09:36:59;;;;;;;48.47;22.90;;;20.70;43.60;;;;;;5019016;28;21518;-45
2022/05/07 09:39:33;;;;;;;38.22;20.38;;;20.70;43.70;;;;;;5022131;28;20057;-47
2022/05/07 09:42:02;;;;;;;47.63;24.15;;;20.70;43.50;;;;;;5018184;28;20061;-47
2022/05/07 09:44:29;;;;;;;40.60;21.30;;;20.80;44.00;;;;;;5020462;28;20350;-45
2022/05/07 09:46:59;;;;;;;39.72;21.73;;;20.90;43.60;;;;;;5018838;28;20057;-44
2022/05/07 09:49:27;;;;;;;41.10;21.48;;;20.90;43.60;;;;;;5017900;28;20049;-45
2022/05/07 09:51:56;;;;;;;32.05;18.45;;;21.00;43.90;;;;;;5019101;28;20656;-44
2022/05/07 09:59:55;;;;;;;38.47;20.85;;;21.10;41.30;;;;;;5026562;28;20532;-44
2022/05/07 10:02:42;;;;;;;39.00;22.35;;;21.20;41.20;;;;;;5019765;28;20064;-47
2022/05/07 10:05:35;;;;;;;33.95;19.13;;;21.30;40.70;;;;;;5020401;28;20050;-46
2022/05/07 10:08:21;;;;;;;39.55;21.08;;;21.30;41.30;;;;;;5023628;28;20060;-45
2022/05/07 10:10:52;;;;;;;32.78;20.73;;;21.40;42.30;;;;;;5022573;28;20053;-44
2022/05/07 10:13:20;;;;;;;30.85;18.27;;;21.40;41.80;;;;;;5019027;28;20068;-44
2022/05/07 10:15:59;;;;;;;37.50;22.23;;;21.50;41.70;;;;;;5020626;28;20045;-44
2022/05/07 10:18:38;;;;;;;36.90;22.40;;;21.50;41.70;;;;;;5020630;28;20509;-46
2022/05/07 10:21:13;;;;;;;33.80;21.88;;;21.60;41.10;;;;;;5023937;28;20069;-47
2022/05/07 10:23:53;;;;;;;29.77;20.15;;;21.60;40.20;;;;;;5020129;28;20061;-44
2022/05/07 10:26:22;;;;;;;35.83;23.23;;;21.60;40.30;;;;;;5016548;28;20053;-47
2022/05/07 10:28:50;;;;;;;38.70;21.92;;;21.70;40.50;;;;;;5015710;28;20053;-47
2022/05/07 10:31:20;;;;;;;37.95;21.83;;;21.70;40.00;;;;;;5015548;28;20053;-46
2022/05/07 10:33:50;;;;;;;42.72;22.95;;;21.80;40.30;;;;;;5017695;28;20388;-44
2022/05/07 10:36:18;;;;;;;42.58;23.98;;;21.80;40.40;;;;;;5021842;28;20049;-46
2022/05/07 10:38:46;;;;;;;31.35;20.63;;;21.80;39.80;;;;;;5017003;28;20069;-45
2022/05/07 10:41:22;;;;;;;46.47;28.30;;;21.90;40.50;;;;;;5022561;28;20493;-49
2022/05/07 10:44:02;;;;;;;43.03;27.40;;;21.90;38.00;;;;;;5019820;28;20069;-44
2022/05/07 10:46:39;;;;;;;36.20;23.05;;;22.00;38.50;;;;;;5018980;28;20057;-44
2022/05/07 10:49:08;;;;;;;30.75;19.30;;;22.00;38.40;;;;;;5021620;28;20054;-45
2022/05/07 10:51:38;;;;;;;37.63;22.50;;;22.00;39.20;;;;;;5018067;28;20428;-46
2022/05/07 10:54:19;;;;;;;39.80;24.67;;;22.10;39.20;;;;;;5021829;28;20072;-45
2022/05/07 10:56:48;;;;;;;39.10;25.35;;;22.10;38.10;;;;;;5018532;28;20053;-45
2022/05/07 10:59:15;;;;;;;40.25;25.13;;;22.10;38.00;;;;;;5017503;28;20049;-43
2022/05/07 11:01:43;;;;;;;43.63;29.75;;;22.10;38.10;;;;;;5012420;28;20049;-45
2022/05/07 11:04:13;;;;;;;40.33;26.25;;;22.10;37.60;;;;;;5014864;28;20053;-47
2022/05/07 11:06:48;;;;;;;35.15;24.27;;;22.20;37.90;;;;;;5020420;28;20290;-45
2022/05/07 11:09:17;;;;;;;38.40;24.63;;;22.20;37.80;;;;;;5020648;28;20060;-48
2022/05/07 11:11:46;;;;;;;38.33;25.15;;;22.30;37.90;;;;;;5018925;28;20060;-45
2022/05/07 11:14:22;;;;;;;38.40;24.75;;;22.30;38.00;;;;;;5019637;28;20547;-44
2022/05/07 11:16:50;;;;;;;33.13;22.02;;;22.30;38.40;;;;;;5020185;28;22097;-44
2022/05/07 11:19:26;;;;;;;34.70;22.92;;;22.40;38.20;;;;;;5017056;28;20057;-46
2022/05/07 11:21:55;;;;;;;38.00;23.75;;;22.50;38.20;;;;;;5019949;28;20056;-45
2022/05/07 11:24:25;;;;;;;34.55;21.73;;;22.50;38.30;;;;;;5019588;28;20401;-45
2022/05/07 11:26:54;;;;;;;36.53;22.45;;;22.50;38.20;;;;;;5021963;28;20516;-46
2022/05/07 11:29:23;;;;;;;32.50;21.17;;;22.60;38.40;;;;;;5021443;28;20057;-46
2022/05/07 11:31:58;;;;;;;40.33;25.42;;;22.70;38.20;;;;;;5016754;28;20600;-44
2022/05/07 11:34:32;;;;;;;30.92;19.35;;;22.80;36.50;;;;;;5019182;28;20060;-46
2022/05/07 11:37:13;;;;;;;30.25;19.70;;;22.90;37.90;;;;;;5020903;28;20057;-46
2022/05/07 11:39:50;;;;;;;28.23;18.45;;;22.90;38.50;;;;;;5021596;28;20149;-45
2022/05/07 11:42:32;;;;;;;23.52;16.48;;;23.00;37.40;;;;;;5015134;28;20053;-47
2022/05/07 11:47:53;;;;;;;37.75;20.30;;;23.10;37.80;;;;;;5025358;28;20060;-44
2022/05/07 11:50:32;;;;;;;29.33;18.90;;;23.20;37.80;;;;;;5019904;28;20497;-44
2022/05/07 11:53:11;;;;;;;23.35;15.70;;;23.30;37.90;;;;;;5017929;28;20057;-45
2022/05/07 11:55:38;;;;;;;23.83;15.98;;;23.30;38.40;;;;;;5021845;28;20417;-43
2022/05/07 11:58:13;;;;;;;27.90;17.67;;;23.40;38.20;;;;;;5015082;28;20486;-45
2022/05/07 12:00:43;;;;;;;27.58;17.23;;;23.40;37.40;;;;;;5019145;28;20076;-45
2022/05/07 12:03:11;;;;;;;29.98;16.83;;;23.50;37.40;;;;;;5014761;28;20421;-44
2022/05/07 12:05:42;;;;;;;36.17;19.33;;;23.50;37.40;;;;;;5013085;28;20056;-43
2022/05/07 12:08:16;;;;;;;31.92;20.42;;;23.60;37.50;;;;;;5015239;28;20069;-44
2022/05/07 12:10:44;;;;;;;35.75;21.70;;;23.60;36.60;;;;;;5021732;28;20057;-45
2022/05/07 12:13:14;;;;;;;29.15;17.60;;;23.60;36.30;;;;;;5016758;28;20050;-45
2022/05/07 12:18:29;;;;;;;33.55;19.95;;;23.60;36.60;;;;;;5021026;28;20064;-43
2022/05/07 12:20:59;;;;;;;28.27;17.45;;;23.60;36.00;;;;;;5016027;28;20042;-43
2022/05/07 12:31:41;;;;;;;19.65;14.18;;;23.60;37.10;;;;;;5022324;28;20052;-47
2022/05/07 12:34:11;;;;;;;23.00;14.38;;;23.60;37.40;;;;;;5012203;28;20049;-51
2022/05/07 12:36:40;;;;;;;24.35;15.20;;;23.70;37.20;;;;;;5020305;28;20050;-44
2022/05/07 12:39:07;;;;;;;20.02;13.20;;;23.70;36.70;;;;;;5021307;28;20078;-47
2022/05/07 12:41:35;;;;;;;24.92;13.40;;;23.70;36.70;;;;;;5018899;28;20065;-46
2022/05/07 12:44:02;;;;;;;20.90;11.77;;;23.70;36.20;;;;;;5021208;28;20057;-47
2022/05/07 12:46:30;;;;;;;19.90;12.35;;;23.80;37.10;;;;;;5021880;28;20060;-45
2022/05/07 12:48:57;;;;;;;18.88;11.40;;;23.90;36.60;;;;;;5020032;28;20064;-46
2022/05/07 12:51:27;;;;;;;20.10;12.07;;;23.90;36.20;;;;;;5017579;28;20061;-43
2022/05/07 12:53:56;;;;;;;19.83;11.73;;;23.90;35.30;;;;;;5018131;28;20054;-44
2022/05/07 12:56:23;;;;;;;14.65;9.85;;;24.00;36.00;;;;;;5021284;28;20053;-44
2022/05/07 12:58:51;;;;;;;15.15;9.88;;;24.00;36.70;;;;;;5020845;28;20080;-45
2022/05/07 13:01:18;;;;;;;14.27;9.13;;;24.10;36.70;;;;;;5018884;28;20058;-43
2022/05/07 13:03:46;;;;;;;19.63;11.00;;;24.10;36.70;;;;;;5019401;28;20090;-45
2022/05/07 13:06:13;;;;;;;19.05;11.32;;;24.20;36.40;;;;;;5020058;28;20057;-44
2022/05/07 13:08:41;;;;;;;18.52;12.00;;;24.20;35.90;;;;;;5020970;28;20061;-43
2022/05/07 13:11:10;;;;;;;22.17;11.40;;;24.20;36.20;;;;;;5020891;28;20072;-44
2022/05/07 13:13:37;;;;;;;16.77;10.02;;;24.20;36.50;;;;;;5016700;28;20405;-46
2022/05/07 13:16:05;;;;;;;19.75;12.30;;;24.20;36.10;;;;;;5021224;28;20049;-44